Time;durP1;ratioP1;P1;durP2;ratioP2;P2;SDS_P1;SDS_P2;PMS_P1;PMS_P2;Temp;Humidity;BMP_temperature;BMP_pressure;BME280_temperature;BME280_humidity;BME280_pressure;Samples;Min_cycle;Max_cycle;Signal;HPM_P1;HPM_P2
2022/11/30 00:00:09;;;;;;;23.07;14.40;;;0.20;99.90;;;;;;5045023;28;20210;-65
2022/11/30 00:02:37;;;;;;;21.73;13.10;;;0.10;99.90;;;;;;5037819;28;20545;-65
2022/11/30 00:05:04;;;;;;;22.77;13.90;;;0.10;99.90;;;;;;5054366;28;20573;-65
2022/11/30 00:07:31;;;;;;;24.70;13.57;;;0.10;99.90;;;;;;5053795;28;20215;-66
2022/11/30 04:32:10;;;;;;;15.07;7.53;;;-1.10;99.90;;;;;;5106115;27;20558;-65
2022/11/30 04:34:37;;;;;;;10.93;6.90;;;-0.60;99.90;;;;;;5109332;28;20199;-64
2022/11/30 04:37:03;;;;;;;10.80;6.80;;;-0.50;99.90;;;;;;5109401;28;20223;-63
2022/11/30 04:39:33;;;;;;;10.47;6.83;;;-0.50;99.90;;;;;;5109919;28;20199;-66
2022/11/30 04:42:00;;;;;;;11.63;7.17;;;-0.50;99.90;;;;;;5108956;28;20575;-64
2022/11/30 04:44:26;;;;;;;9.70;6.03;;;-0.50;99.90;;;;;;5110111;28;20199;-65
2022/11/30 04:46:53;;;;;;;11.37;6.30;;;-0.50;99.90;;;;;;5108232;28;20233;-64
2022/11/30 04:49:21;;;;;;;12.00;6.60;;;-0.50;99.90;;;;;;5109556;28;20211;-66
2022/11/30 04:51:48;;;;;;;9.77;6.50;;;-0.40;99.90;;;;;;5109493;28;20594;-65
2022/11/30 04:54:15;;;;;;;12.63;7.57;;;-0.50;99.90;;;;;;5109564;28;20563;-65
2022/11/30 04:56:41;;;;;;;12.97;7.30;;;-0.50;99.90;;;;;;5108041;28;20210;-65
2022/11/30 04:59:08;;;;;;;12.80;7.57;;;-0.50;99.90;;;;;;5109610;28;20210;-64
2022/11/30 05:01:35;;;;;;;12.53;7.17;;;-0.40;99.90;;;;;;5109189;28;20205;-64
2022/11/30 05:04:02;;;;;;;13.37;7.60;;;-0.50;99.90;;;;;;5109583;28;20204;-64
2022/11/30 05:06:30;;;;;;;11.60;7.17;;;-0.40;99.90;;;;;;5107859;28;20208;-65
2022/11/30 05:08:57;;;;;;;14.87;8.77;;;-0.40;99.90;;;;;;5109046;28;20653;-64
2022/11/30 05:11:23;;;;;;;19.17;9.83;;;-0.50;99.90;;;;;;5109203;28;20564;-65
2022/11/30 05:13:50;;;;;;;13.43;7.03;;;-0.40;99.90;;;;;;5108060;28;20208;-66
2022/11/30 05:16:17;;;;;;;13.90;7.67;;;-0.50;99.90;;;;;;5107779;28;20214;-65
2022/11/30 05:18:44;;;;;;;11.77;7.03;;;-0.50;99.90;;;;;;5108774;28;20206;-65
2022/11/30 05:21:10;;;;;;;12.37;7.17;;;-0.50;99.90;;;;;;5108799;28;20202;-66
2022/11/30 05:23:38;;;;;;;13.03;7.63;;;-0.50;99.90;;;;;;5108844;28;20570;-64
2022/11/30 05:26:05;;;;;;;12.17;7.17;;;-0.50;99.90;;;;;;5107271;28;20195;-64
2022/11/30 05:28:32;;;;;;;12.07;7.60;;;-0.50;99.90;;;;;;5108396;28;20206;-65
2022/11/30 05:31:03;;;;;;;12.83;7.70;;;-0.50;99.90;;;;;;5106536;28;20242;-65
2022/11/30 05:33:30;;;;;;;13.00;7.83;;;-0.60;99.90;;;;;;5094975;28;20652;-64
2022/11/30 05:35:57;;;;;;;13.70;8.33;;;-0.60;99.90;;;;;;5094131;28;20204;-65
2022/11/30 05:38:24;;;;;;;15.30;7.53;;;-0.60;99.90;;;;;;5094386;28;20200;-65
2022/11/30 05:40:52;;;;;;;13.43;8.17;;;-0.60;99.90;;;;;;5094596;28;20206;-65
2022/11/30 05:43:18;;;;;;;13.47;8.30;;;-0.70;99.90;;;;;;5094755;28;20361;-65
2022/11/30 05:45:45;;;;;;;16.50;9.60;;;-0.60;99.90;;;;;;5093922;28;20204;-66
2022/11/30 05:48:12;;;;;;;14.60;9.17;;;-0.60;99.90;;;;;;5094737;28;20583;-65
2022/11/30 05:50:39;;;;;;;15.10;9.43;;;-0.60;99.90;;;;;;5094554;28;20568;-64
2022/11/30 05:53:05;;;;;;;15.60;8.57;;;-0.60;99.90;;;;;;5094643;28;20204;-64
2022/11/30 05:55:33;;;;;;;13.53;8.87;;;-0.60;99.90;;;;;;5093624;28;20207;-65
2022/11/30 05:58:01;;;;;;;15.60;9.63;;;-0.60;99.90;;;;;;5093468;28;20570;-66
2022/11/30 06:00:28;;;;;;;16.77;9.47;;;-0.60;99.90;;;;;;5093417;28;20196;-64
2022/11/30 06:02:56;;;;;;;15.37;9.73;;;-0.50;99.90;;;;;;5094263;28;20208;-64
2022/11/30 06:05:23;;;;;;;13.73;8.67;;;-0.60;99.90;;;;;;5093087;28;20613;-64
2022/11/30 06:07:50;;;;;;;17.47;9.57;;;-0.50;99.90;;;;;;5094291;28;20210;-65
2022/11/30 06:10:17;;;;;;;16.50;9.67;;;-0.50;99.90;;;;;;5094104;28;20254;-63
2022/11/30 06:12:44;;;;;;;14.77;9.53;;;-0.50;99.90;;;;;;5094490;28;20204;-66
2022/11/30 06:15:12;;;;;;;15.27;9.57;;;-0.50;99.90;;;;;;5093296;28;20214;-64
2022/11/30 06:17:39;;;;;;;16.80;10.13;;;-0.50;99.90;;;;;;5073868;28;20523;-64
2022/11/30 06:20:07;;;;;;;21.10;10.17;;;-0.60;99.90;;;;;;5073654;28;20584;-64
2022/11/30 10:22:04;;;;;;;26.87;15.40;;;-1.20;99.90;;;;;;5572328;22;20655;-64
2022/11/30 10:24:50;;;;;;;25.57;14.87;;;-1.20;99.90;;;;;;5088141;28;20555;-64
2022/11/30 10:27:18;;;;;;;24.20;13.70;;;-1.10;99.90;;;;;;5088715;28;20184;-64
2022/11/30 10:29:45;;;;;;;24.63;14.40;;;-1.00;99.90;;;;;;5088038;28;20196;-65
2022/11/30 10:32:18;;;;;;;25.90;14.00;;;-0.90;99.90;;;;;;5090272;28;20223;-64
2022/11/30 10:34:49;;;;;;;26.27;15.57;;;-0.90;99.90;;;;;;5068702;28;20192;-65
2022/11/30 10:37:22;;;;;;;25.63;14.37;;;-0.80;99.90;;;;;;5080799;28;20193;-64
2022/11/30 10:39:58;;;;;;;22.17;13.13;;;-0.70;99.90;;;;;;5080495;28;20216;-64
2022/11/30 10:42:30;;;;;;;22.70;13.17;;;-0.70;99.90;;;;;;5094214;28;20200;-64
2022/11/30 10:45:03;;;;;;;24.33;13.73;;;-0.70;99.90;;;;;;5088791;28;20196;-65
2022/11/30 10:47:35;;;;;;;23.03;13.60;;;-0.70;99.90;;;;;;5076612;28;20573;-64
2022/11/30 10:50:03;;;;;;;30.50;16.70;;;-0.70;99.90;;;;;;5088545;28;20188;-65
2022/11/30 10:52:36;;;;;;;33.03;16.93;;;-0.70;99.90;;;;;;5088639;28;20347;-65
2022/11/30 10:55:12;;;;;;;25.93;14.57;;;-0.70;99.90;;;;;;5087362;28;20554;-65
2022/11/30 10:57:39;;;;;;;30.00;15.90;;;-0.70;99.90;;;;;;5088100;28;20196;-65
2022/11/30 11:00:07;;;;;;;28.33;14.07;;;-0.70;99.90;;;;;;5088500;28;20224;-64
2022/11/30 11:02:41;;;;;;;26.90;12.87;;;-0.70;99.90;;;;;;5087109;28;20200;-64
2022/11/30 11:05:22;;;;;;;24.13;13.30;;;-0.60;99.90;;;;;;5067925;28;20189;-64
2022/11/30 11:07:57;;;;;;;28.17;14.03;;;-0.70;99.90;;;;;;5067850;28;20215;-64
2022/11/30 11:10:30;;;;;;;30.53;13.90;;;-0.70;99.90;;;;;;5079088;28;20199;-66
2022/11/30 11:12:57;;;;;;;33.03;15.97;;;-0.70;99.90;;;;;;5087721;28;20249;-65
2022/11/30 11:15:26;;;;;;;32.83;15.80;;;-0.80;99.90;;;;;;5088076;28;20223;-65
2022/11/30 11:17:54;;;;;;;35.03;16.30;;;-0.70;99.90;;;;;;5087823;28;20211;-65
2022/11/30 11:20:30;;;;;;;41.47;18.07;;;-0.80;99.90;;;;;;5080971;28;20237;-66
2022/11/30 11:22:59;;;;;;;38.57;18.03;;;-0.70;99.90;;;;;;5071704;28;20721;-65
2022/11/30 11:25:31;;;;;;;40.97;17.43;;;-0.70;99.90;;;;;;5087722;28;20668;-65
2022/11/30 11:28:05;;;;;;;37.33;15.40;;;-0.70;99.90;;;;;;5088142;28;20528;-66
2022/11/30 11:30:32;;;;;;;27.27;15.13;;;-0.70;99.90;;;;;;5087864;28;20581;-66
2022/11/30 11:33:02;;;;;;;30.33;15.40;;;-0.70;99.90;;;;;;5075955;28;20238;-68
2022/11/30 11:35:35;;;;;;;27.73;13.80;;;-0.60;99.90;;;;;;5074508;28;20200;-66
2022/11/30 11:38:04;;;;;;;30.73;14.43;;;-0.70;99.90;;;;;;5062433;28;20671;-66
2022/11/30 11:40:31;;;;;;;26.13;13.77;;;-0.70;99.90;;;;;;5074397;28;20225;-64
2022/11/30 11:42:59;;;;;;;36.67;16.73;;;-0.70;99.90;;;;;;5074472;28;20216;-66
2022/11/30 11:45:28;;;;;;;34.53;18.10;;;-0.60;99.90;;;;;;5074441;28;20660;-67
2022/11/30 11:48:00;;;;;;;33.40;15.90;;;-0.60;99.90;;;;;;5074464;28;20296;-65
2022/11/30 11:50:31;;;;;;;34.03;16.57;;;-0.50;99.90;;;;;;5074649;28;20201;-67
2022/11/30 11:53:21;;;;;;;35.00;15.63;;;-0.50;99.90;;;;;;5074234;28;20212;-65
2022/11/30 11:55:55;;;;;;;44.20;19.23;;;-0.50;99.90;;;;;;5064207;28;20204;-65
2022/11/30 11:58:31;;;;;;;42.63;18.87;;;-0.60;99.90;;;;;;5073877;28;20195;-69
2022/11/30 12:01:00;;;;;;;38.73;18.17;;;-0.50;99.90;;;;;;5074257;28;20676;-65
2022/11/30 12:03:35;;;;;;;37.07;16.43;;;-0.50;99.90;;;;;;5074202;28;20315;-65
2022/11/30 12:06:05;;;;;;;42.80;17.37;;;-0.50;99.90;;;;;;5073922;28;20192;-67
2022/11/30 12:08:39;;;;;;;45.60;19.13;;;-0.50;99.90;;;;;;5073948;28;20716;-66
2022/11/30 12:11:11;;;;;;;45.03;18.93;;;-0.50;99.90;;;;;;5069091;28;20202;-66
2022/11/30 12:13:41;;;;;;;41.37;17.53;;;-0.50;99.90;;;;;;5053902;28;20197;-65
2022/11/30 12:16:25;;;;;;;30.20;14.63;;;-0.50;99.90;;;;;;5053880;28;20679;-65
2022/11/30 12:18:57;;;;;;;29.93;14.33;;;-0.50;99.90;;;;;;5059218;28;20655;-66
2022/11/30 12:21:33;;;;;;;33.27;15.93;;;-0.40;99.90;;;;;;5073545;28;20215;-65
2022/11/30 12:24:27;;;;;;;30.30;16.20;;;-0.50;99.90;;;;;;5053237;28;20189;-65
2022/11/30 12:27:01;;;;;;;31.63;14.33;;;-0.50;99.90;;;;;;5053698;28;20204;-66
2022/11/30 12:29:41;;;;;;;25.33;13.43;;;-0.50;99.90;;;;;;5056581;28;20197;-67
2022/11/30 12:32:23;;;;;;;24.53;13.70;;;-0.60;99.90;;;;;;5053331;28;20228;-65
2022/11/30 12:35:02;;;;;;;27.33;14.53;;;-0.70;99.90;;;;;;5053441;28;20193;-65
2022/11/30 12:37:36;;;;;;;24.33;13.17;;;-0.70;99.90;;;;;;5069011;28;20193;-64
2022/11/30 12:40:15;;;;;;;26.67;12.93;;;-0.70;99.90;;;;;;5072897;28;20204;-65
2022/11/30 12:42:46;;;;;;;23.20;12.63;;;-0.70;99.90;;;;;;5073162;28;20189;-67
2022/11/30 12:45:19;;;;;;;22.37;13.03;;;-0.70;99.90;;;;;;5066471;28;20552;-66
2022/11/30 12:47:55;;;;;;;25.23;13.47;;;-0.80;99.90;;;;;;5060500;28;20203;-65
2022/11/30 12:50:40;;;;;;;28.87;13.53;;;-0.70;99.90;;;;;;5072738;28;20189;-65
2022/11/30 12:53:17;;;;;;;31.90;14.93;;;-0.70;99.90;;;;;;5073226;28;20204;-67
2022/11/30 12:55:53;;;;;;;31.60;14.03;;;-0.70;99.90;;;;;;5072788;28;20193;-66
2022/11/30 12:58:25;;;;;;;34.90;13.67;;;-0.70;99.90;;;;;;5072350;28;20188;-66
2022/11/30 13:01:06;;;;;;;29.33;14.50;;;-0.70;99.90;;;;;;5068712;28;20216;-65
2022/11/30 13:03:43;;;;;;;27.30;13.30;;;-0.70;99.90;;;;;;5063870;28;20208;-65
2022/11/30 13:06:15;;;;;;;34.17;15.00;;;-0.80;99.90;;;;;;5059742;28;20193;-66
2022/11/30 13:08:52;;;;;;;28.23;14.30;;;-0.80;99.90;;;;;;5073193;28;20700;-64
2022/11/30 13:11:24;;;;;;;26.87;13.80;;;-0.80;99.90;;;;;;5080842;28;20557;-65
2022/11/30 13:13:54;;;;;;;29.17;14.30;;;-0.80;99.90;;;;;;5063376;28;20201;-65
2022/11/30 13:16:24;;;;;;;28.63;14.87;;;-0.80;99.90;;;;;;5069296;28;20212;-66
2022/11/30 13:18:52;;;;;;;24.00;13.60;;;-0.80;99.90;;;;;;5070224;28;20213;-65
2022/11/30 13:21:26;;;;;;;26.30;13.40;;;-0.80;99.90;;;;;;5069323;28;20680;-66
2022/11/30 13:24:01;;;;;;;25.67;13.00;;;-0.80;99.90;;;;;;5075400;28;20587;-66
2022/11/30 13:26:37;;;;;;;23.93;11.90;;;-0.80;99.90;;;;;;5073004;28;20773;-65
2022/11/30 13:29:17;;;;;;;28.20;12.77;;;-0.80;99.90;;;;;;5069702;28;20189;-64
2022/11/30 13:31:48;;;;;;;24.30;13.30;;;-0.90;99.90;;;;;;5069000;28;20227;-65
2022/11/30 13:34:26;;;;;;;23.27;12.83;;;-0.90;99.90;;;;;;5092087;28;20189;-65
2022/11/30 13:37:02;;;;;;;25.90;11.97;;;-0.80;99.90;;;;;;5063623;28;20570;-65
2022/11/30 13:39:31;;;;;;;22.47;11.17;;;-0.90;99.90;;;;;;5057880;28;20193;-65
2022/11/30 13:42:37;;;;;;;32.80;16.13;;;-0.90;99.90;;;;;;5074612;28;20232;-65
2022/11/30 13:45:25;;;;;;;20.43;12.30;;;-0.90;99.90;;;;;;5051824;28;20189;-64
2022/11/30 13:47:54;;;;;;;24.70;12.30;;;-0.80;99.90;;;;;;5052937;28;20626;-66
2022/11/30 13:50:26;;;;;;;33.70;13.33;;;-0.90;99.90;;;;;;5050506;28;20227;-64
2022/11/30 18:33:54;;;;;;;44.37;23.67;;;-1.70;99.90;;;;;;5601644;22;20621;-65
2022/11/30 18:36:21;;;;;;;43.80;23.67;;;-1.70;99.90;;;;;;5105452;28;20207;-63
2022/11/30 18:38:47;;;;;;;41.23;22.03;;;-1.60;99.90;;;;;;5098963;28;20662;-64
2022/11/30 18:41:14;;;;;;;44.40;23.80;;;-1.50;99.90;;;;;;5097345;28;20672;-64
2022/11/30 18:43:41;;;;;;;47.17;23.10;;;-1.30;99.90;;;;;;5104994;28;20585;-63
2022/11/30 18:46:10;;;;;;;45.23;23.03;;;-1.30;99.90;;;;;;5094964;28;20628;-63
2022/11/30 18:48:38;;;;;;;44.80;21.93;;;-1.20;99.90;;;;;;5081356;28;20204;-64
2022/11/30 18:51:14;;;;;;;45.07;21.77;;;-1.10;99.90;;;;;;5075651;28;20203;-63
2022/11/30 18:53:41;;;;;;;43.00;22.53;;;-1.00;99.90;;;;;;5087494;28;20574;-65
2022/11/30 18:56:11;;;;;;;41.07;20.87;;;-1.00;99.90;;;;;;5088737;28;20204;-65
2022/11/30 18:58:38;;;;;;;38.63;20.43;;;-0.90;99.90;;;;;;5087372;28;20361;-64
2022/11/30 19:01:09;;;;;;;38.53;20.33;;;-0.90;99.90;;;;;;5094226;28;20196;-64
2022/11/30 19:03:36;;;;;;;45.17;24.53;;;-0.80;99.90;;;;;;5108759;28;20531;-62
2022/11/30 19:06:04;;;;;;;42.63;20.83;;;-0.80;99.90;;;;;;5094837;28;20200;-63
2022/11/30 19:08:32;;;;;;;42.37;20.63;;;-0.80;99.90;;;;;;5098278;28;20666;-63
2022/11/30 19:11:03;;;;;;;37.70;20.30;;;-0.70;99.90;;;;;;5108689;28;20210;-62
2022/11/30 19:13:30;;;;;;;44.47;21.33;;;-0.70;99.90;;;;;;5107913;28;20219;-63
2022/11/30 19:16:01;;;;;;;41.77;21.57;;;-0.60;99.90;;;;;;5103470;28;20204;-64
2022/11/30 19:18:28;;;;;;;39.67;21.17;;;-0.60;99.90;;;;;;5097839;28;20197;-65
2022/11/30 19:20:55;;;;;;;41.23;21.30;;;-0.60;99.90;;;;;;5093074;28;20646;-64
2022/11/30 19:23:22;;;;;;;40.07;22.07;;;-0.60;99.90;;;;;;5097313;28;20191;-63
2022/11/30 19:25:50;;;;;;;43.13;22.37;;;-0.50;99.90;;;;;;5093336;28;20204;-63
2022/11/30 19:28:17;;;;;;;43.97;21.07;;;-0.50;99.90;;;;;;5087421;28;20432;-67
2022/11/30 19:30:44;;;;;;;41.37;21.57;;;-0.50;99.90;;;;;;5085533;28;20212;-64
2022/11/30 19:33:12;;;;;;;40.43;21.53;;;-0.50;99.90;;;;;;5077492;28;20228;-63
2022/11/30 19:35:39;;;;;;;44.17;24.10;;;-0.50;99.90;;;;;;5082375;28;20236;-65
2022/11/30 19:38:06;;;;;;;57.57;28.67;;;-0.50;99.90;;;;;;5085321;28;20218;-64
2022/11/30 19:40:33;;;;;;;48.43;25.03;;;-0.40;99.90;;;;;;5086749;28;20231;-64
2022/11/30 19:43:01;;;;;;;49.83;27.47;;;-0.40;99.90;;;;;;5085827;28;20198;-65
2022/11/30 19:45:28;;;;;;;50.17;25.13;;;-0.40;99.90;;;;;;5075551;28;20274;-64
2022/11/30 19:47:55;;;;;;;46.67;23.47;;;-0.40;99.90;;;;;;5082201;28;20193;-65
2022/11/30 19:50:23;;;;;;;54.63;28.83;;;-0.40;99.90;;;;;;5073092;28;20341;-65
2022/11/30 19:52:50;;;;;;;48.73;25.73;;;-0.40;99.90;;;;;;5072472;28;20606;-65
2022/11/30 19:55:17;;;;;;;51.50;26.13;;;-0.40;99.90;;;;;;5073519;28;20305;-65
2022/11/30 19:57:43;;;;;;;50.33;26.10;;;-0.30;99.90;;;;;;5072468;28;20204;-64
2022/11/30 20:00:13;;;;;;;47.73;24.77;;;-0.30;99.90;;;;;;5086072;28;20211;-65
2022/11/30 20:02:40;;;;;;;44.80;23.83;;;-0.30;99.90;;;;;;5075905;28;20570;-67
2022/11/30 20:05:07;;;;;;;46.17;22.80;;;-0.30;99.90;;;;;;5071048;28;20208;-65
2022/11/30 20:07:35;;;;;;;40.17;20.53;;;-0.30;99.90;;;;;;5071799;28;20681;-66
2022/11/30 20:10:02;;;;;;;38.50;19.93;;;-0.30;99.90;;;;;;5072894;28;20217;-65
2022/11/30 20:12:28;;;;;;;43.00;21.70;;;-0.30;99.90;;;;;;5072913;28;20220;-66
2022/11/30 20:14:55;;;;;;;37.77;20.50;;;-0.30;99.90;;;;;;5072527;28;20201;-64
2022/11/30 20:17:23;;;;;;;39.07;19.23;;;-0.30;99.90;;;;;;5080798;28;20479;-65
2022/11/30 20:19:50;;;;;;;39.40;19.13;;;-0.30;99.90;;;;;;5068359;28;20201;-66
2022/11/30 20:22:17;;;;;;;41.33;19.23;;;-0.30;99.90;;;;;;5066864;28;20610;-67
2022/11/30 20:24:44;;;;;;;38.23;20.27;;;-0.30;99.90;;;;;;5069215;28;20644;-65
2022/11/30 20:27:10;;;;;;;37.33;17.87;;;-0.30;99.90;;;;;;5082206;28;20644;-66
2022/11/30 20:29:37;;;;;;;43.60;18.33;;;-0.30;99.90;;;;;;5073350;28;20659;-65
2022/11/30 20:32:04;;;;;;;37.50;18.03;;;-0.30;99.90;;;;;;5074192;28;20662;-67
2022/11/30 20:34:35;;;;;;;41.07;18.67;;;-0.30;99.90;;;;;;5073059;28;20232;-66
2022/11/30 20:37:01;;;;;;;39.67;19.53;;;-0.30;99.90;;;;;;5073376;28;20633;-67
2022/11/30 20:39:28;;;;;;;36.53;18.20;;;-0.30;99.90;;;;;;5080508;28;20706;-66
2022/11/30 20:41:55;;;;;;;39.60;21.17;;;-0.30;99.90;;;;;;5073538;28;20262;-65
2022/11/30 20:44:22;;;;;;;44.53;23.03;;;-0.30;99.90;;;;;;5073383;28;20208;-67
2022/11/30 20:46:49;;;;;;;37.23;19.30;;;-0.30;99.90;;;;;;5073161;28;20215;-66
2022/11/30 20:49:17;;;;;;;37.50;19.10;;;-0.30;99.90;;;;;;5084752;28;20200;-65
2022/11/30 20:51:45;;;;;;;39.97;18.80;;;-0.30;99.90;;;;;;5093425;28;20321;-64
2022/11/30 20:54:13;;;;;;;37.77;18.90;;;-0.30;99.90;;;;;;5090791;28;20774;-67
2022/11/30 20:56:40;;;;;;;40.77;18.57;;;-0.30;99.90;;;;;;5072017;28;20208;-65
2022/11/30 20:59:12;;;;;;;38.07;19.47;;;-0.30;99.90;;;;;;5072798;28;20219;-66
2022/11/30 21:01:41;;;;;;;40.93;19.03;;;-0.30;99.90;;;;;;5076419;28;20203;-67
2022/11/30 21:04:08;;;;;;;40.00;19.00;;;-0.20;99.90;;;;;;5092580;28;20192;-64
2022/11/30 21:06:35;;;;;;;46.00;22.47;;;-0.20;99.90;;;;;;5093302;28;20569;-64
2022/11/30 21:09:04;;;;;;;45.30;21.33;;;-0.20;99.90;;;;;;5093397;28;20200;-66
2022/11/30 21:11:31;;;;;;;41.83;20.47;;;-0.20;99.90;;;;;;5093246;28;20220;-68
2022/11/30 21:13:58;;;;;;;43.27;20.50;;;-0.20;99.90;;;;;;5093544;28;20563;-66
2022/11/30 21:16:27;;;;;;;38.97;20.10;;;-0.30;99.90;;;;;;5073765;28;20201;-65
2022/11/30 21:18:54;;;;;;;38.37;18.50;;;-0.20;99.90;;;;;;5070210;28;20212;-67
2022/11/30 21:21:23;;;;;;;41.37;20.33;;;-0.20;99.90;;;;;;5075969;28;20207;-65
2022/11/30 21:23:50;;;;;;;41.57;19.13;;;-0.20;99.90;;;;;;5075463;28;20204;-66
2022/11/30 21:26:21;;;;;;;39.27;19.37;;;-0.20;99.90;;;;;;5067628;28;20201;-65
2022/11/30 21:28:51;;;;;;;39.33;18.40;;;-0.20;99.90;;;;;;5069951;28;20200;-65
2022/11/30 21:31:18;;;;;;;39.33;18.77;;;-0.30;99.90;;;;;;5061550;28;20731;-65
2022/11/30 21:33:46;;;;;;;41.17;20.00;;;-0.20;99.90;;;;;;5072062;28;20308;-65
2022/11/30 21:36:15;;;;;;;44.63;20.20;;;-0.20;99.90;;;;;;5079848;28;20198;-67
2022/11/30 21:38:42;;;;;;;42.10;19.47;;;-0.20;99.90;;;;;;5092752;28;20207;-70
2022/11/30 21:41:11;;;;;;;39.87;18.93;;;-0.20;99.90;;;;;;5088554;28;20203;-65
2022/11/30 21:43:40;;;;;;;34.80;19.37;;;-0.20;99.90;;;;;;5069867;28;20201;-65
2022/11/30 21:46:10;;;;;;;37.50;17.77;;;-0.20;99.90;;;;;;5067577;28;20204;-68
2022/11/30 21:48:39;;;;;;;38.80;19.13;;;-0.20;99.90;;;;;;5071123;28;20567;-66
2022/11/30 21:51:08;;;;;;;37.50;19.17;;;-0.20;99.90;;;;;;5075872;28;20205;-68
2022/11/30 21:53:37;;;;;;;42.03;19.50;;;-0.20;99.90;;;;;;5077447;28;20235;-67
2022/11/30 21:56:05;;;;;;;38.87;19.00;;;-0.20;99.90;;;;;;5080696;28;20560;-66
2022/11/30 21:58:32;;;;;;;43.27;24.03;;;-0.20;99.90;;;;;;5078014;28;20200;-65
2022/11/30 22:01:02;;;;;;;20.40;9.77;;;-0.30;99.90;;;;;;5077266;28;20243;-66
2022/11/30 22:03:29;;;;;;;18.77;9.40;;;-0.30;99.90;;;;;;5075942;28;20279;-66
2022/11/30 22:06:00;;;;;;;17.33;8.00;;;-0.40;99.90;;;;;;5078908;28;20236;-66
2022/11/30 22:08:27;;;;;;;16.40;8.33;;;-0.40;99.90;;;;;;5082775;28;20652;-65
2022/11/30 22:10:54;;;;;;;18.87;8.27;;;-0.40;99.90;;;;;;5081968;28;20203;-66
2022/11/30 22:13:21;;;;;;;16.90;8.10;;;-0.40;99.90;;;;;;5078885;28;20278;-65
2022/11/30 22:15:48;;;;;;;18.67;8.70;;;-0.40;99.90;;;;;;5077154;28;20282;-66
2022/11/30 22:18:16;;;;;;;14.97;8.60;;;-0.50;99.90;;;;;;5081184;28;20207;-64
2022/11/30 22:20:43;;;;;;;16.30;8.93;;;-0.50;99.90;;;;;;5080912;28;20208;-65
2022/11/30 22:23:10;;;;;;;17.50;8.20;;;-0.50;99.90;;;;;;5073732;28;20204;-64
2022/11/30 22:25:36;;;;;;;18.23;8.80;;;-0.50;99.90;;;;;;5075253;28;20207;-64
2022/11/30 22:28:03;;;;;;;17.20;8.67;;;-0.40;99.90;;;;;;5064574;28;20213;-64
2022/11/30 22:30:30;;;;;;;15.93;8.80;;;-0.40;99.90;;;;;;5051931;28;20205;-63
2022/11/30 22:32:57;;;;;;;17.13;8.33;;;-0.40;99.90;;;;;;5051580;28;20226;-64
2022/11/30 22:35:25;;;;;;;22.33;9.33;;;-0.50;99.90;;;;;;5051510;28;20233;-65
2022/11/30 22:37:52;;;;;;;16.87;8.77;;;-0.50;99.90;;;;;;5051698;28;20208;-65
2022/11/30 22:40:18;;;;;;;15.93;9.00;;;-0.50;99.90;;;;;;5058816;28;20200;-65
2022/11/30 22:42:45;;;;;;;16.33;8.40;;;-0.60;99.90;;;;;;5071574;28;20204;-64
2022/11/30 22:45:12;;;;;;;19.93;8.83;;;-0.60;99.90;;;;;;5071479;28;20205;-65
2022/11/30 22:47:39;;;;;;;18.07;8.50;;;-0.60;99.90;;;;;;5059660;28;20209;-65
2022/11/30 22:50:06;;;;;;;16.23;8.70;;;-0.60;99.90;;;;;;5051131;28;20212;-65
2022/11/30 22:52:34;;;;;;;17.50;8.57;;;-0.60;99.90;;;;;;5060220;28;20198;-64
2022/11/30 22:55:01;;;;;;;15.10;8.63;;;-0.60;99.90;;;;;;5090268;28;20210;-64
2022/11/30 22:57:28;;;;;;;14.60;8.57;;;-0.60;99.90;;;;;;5062668;28;20201;-64
2022/11/30 22:59:55;;;;;;;17.53;9.00;;;-0.60;99.90;;;;;;5068498;28;20236;-65
2022/11/30 23:02:21;;;;;;;16.17;7.83;;;-0.70;99.90;;;;;;5064470;28;20215;-65
2022/11/30 23:04:48;;;;;;;15.80;8.27;;;-0.80;99.90;;;;;;5091790;28;20211;-65
2022/11/30 23:07:15;;;;;;;18.23;8.13;;;-0.80;99.90;;;;;;5079068;28;20196;-65
2022/11/30 23:09:43;;;;;;;17.17;8.47;;;-0.80;99.90;;;;;;5091623;28;20660;-65
2022/11/30 23:12:10;;;;;;;16.00;8.53;;;-0.80;99.90;;;;;;5091516;28;20203;-64
2022/11/30 23:14:37;;;;;;;15.67;9.00;;;-0.80;99.90;;;;;;5087295;28;20228;-65
2022/11/30 23:17:03;;;;;;;15.20;9.07;;;-0.80;99.90;;;;;;5091178;28;20211;-64
2022/11/30 23:19:30;;;;;;;17.03;8.83;;;-0.80;99.90;;;;;;5073343;28;20209;-64
2022/11/30 23:21:57;;;;;;;16.73;9.33;;;-0.90;99.90;;;;;;5074927;28;20314;-64
2022/11/30 23:24:24;;;;;;;18.57;9.03;;;-0.90;99.90;;;;;;5090339;28;20198;-65
2022/11/30 23:26:52;;;;;;;18.30;9.17;;;-0.90;99.90;;;;;;5095190;28;20208;-66
2022/11/30 23:29:19;;;;;;;15.20;8.97;;;-0.90;99.90;;;;;;5095002;28;20211;-65
2022/11/30 23:31:46;;;;;;;15.03;8.73;;;-0.90;99.90;;;;;;5083514;28;20215;-65
2022/11/30 23:34:16;;;;;;;19.50;9.60;;;-0.90;99.90;;;;;;5074405;28;20236;-65
2022/11/30 23:36:42;;;;;;;22.83;11.83;;;-0.90;99.90;;;;;;5077330;28;20201;-65
2022/11/30 23:39:11;;;;;;;20.77;10.60;;;-0.90;99.90;;;;;;5070902;28;20656;-66
2022/11/30 23:41:39;;;;;;;20.20;9.87;;;-1.00;99.90;;;;;;5074511;28;20214;-64
2022/11/30 23:44:07;;;;;;;16.17;9.23;;;-1.10;99.90;;;;;;5080396;28;20661;-65
2022/11/30 23:46:35;;;;;;;14.87;8.90;;;-1.10;99.90;;;;;;5074747;28;20205;-64
2022/11/30 23:49:01;;;;;;;19.60;9.07;;;-1.10;99.90;;;;;;5074216;28;20205;-65
2022/11/30 23:51:28;;;;;;;18.27;9.83;;;-1.10;99.90;;;;;;5074536;28;20205;-65
2022/11/30 23:53:55;;;;;;;17.07;9.10;;;-1.10;99.90;;;;;;5074011;28;20224;-65
2022/11/30 23:56:23;;;;;;;16.87;8.97;;;-1.20;99.90;;;;;;5074426;28;20644;-64
2022/11/30 23:58:50;;;;;;;16.37;9.27;;;-1.20;99.90;;;;;;5074204;28;20201;-66
